Epitaciolandia, Brazil
Current Conditions -  °F | °C
As of 7:00 PM on Wednesday 22 Oct 2014 (Local Time) from SLCO Reporting Station
Broken Clouds Broken Clouds  
Wind Chill: 84°   Ceiling: 20000
Heat Index: 94°   Visibility: 6mi
Dew Point: 77°   Wind: 0mph
Humidity: 79%   Direction: NA
Pressure: 29.8"   Gusts: NA
Location:  11.03°S, 68.74°W
Report Text: SLCO 222300Z 00000KT 9999 FEW025 BKN200 29/25 Q1009
Loading
Personal Weather Stations






























Interactive Weather Map
Tropical Storm Tracking
New forecast layout! Learn more

10-Day Weather Forecast

Advertisements
Track Severe Weather on mobile